createdAt,value
2022-09-11T00:02:26.716Z,56.40
2022-09-11T00:05:02.447Z,56.60
2022-09-11T00:07:38.094Z,56.70
2022-09-11T00:10:12.282Z,56.70
2022-09-11T00:12:47.121Z,56.80
2022-09-11T00:15:21.050Z,57.00
2022-09-11T00:17:57.004Z,57.10
2022-09-11T00:20:31.757Z,57.10
2022-09-11T00:23:07.517Z,57.20
2022-09-11T00:25:41.716Z,57.20
2022-09-11T00:28:18.214Z,57.40
2022-09-11T00:31:00.284Z,57.40
2022-09-11T00:33:35.116Z,57.40
2022-09-11T00:36:13.250Z,57.40
2022-09-11T00:38:49.693Z,57.50
2022-09-11T00:41:26.295Z,57.60
2022-09-11T00:44:03.651Z,57.70
2022-09-11T00:46:42.135Z,57.60
2022-09-11T00:49:22.868Z,57.70
2022-09-11T00:52:08.649Z,57.70
2022-09-11T00:54:46.750Z,57.70
2022-09-11T00:57:24.232Z,57.70
2022-09-11T01:00:00.355Z,57.80
2022-09-11T01:02:38.480Z,57.90
2022-09-11T01:05:13.881Z,57.90
2022-09-11T01:07:49.016Z,57.90
2022-09-11T01:10:35.530Z,58.00
2022-09-11T01:13:14.639Z,58.00
2022-09-11T01:16:04.378Z,58.00
2022-09-11T01:18:44.514Z,58.00
2022-09-11T01:21:52.727Z,58.00
2022-09-11T01:24:56.543Z,58.00
2022-09-11T01:27:48.464Z,58.10
2022-09-11T01:30:24.049Z,58.10
2022-09-11T01:33:14.000Z,58.10
2022-09-11T01:35:56.589Z,58.20
2022-09-11T01:38:42.056Z,58.20
2022-09-11T01:41:20.710Z,58.20
2022-09-11T01:43:59.532Z,58.10
2022-09-11T01:46:39.060Z,58.20
2022-09-11T01:49:20.236Z,58.20
2022-09-11T01:51:57.506Z,58.30
2022-09-11T01:54:35.860Z,58.20
2022-09-11T01:57:14.152Z,58.30
2022-09-11T01:59:56.843Z,58.30
2022-09-11T02:02:35.842Z,58.30
2022-09-11T02:05:15.682Z,58.30
2022-09-11T02:07:55.425Z,58.30
2022-09-11T02:10:34.463Z,58.30
2022-09-11T02:13:14.238Z,58.30
2022-09-11T02:15:55.692Z,58.30
2022-09-11T02:18:42.419Z,58.30
2022-09-11T02:21:16.429Z,58.30
2022-09-11T02:23:50.901Z,58.20
2022-09-11T02:26:27.137Z,58.30
2022-09-11T02:29:01.481Z,58.30
2022-09-11T02:31:37.603Z,58.30
2022-09-11T02:34:15.298Z,58.30
2022-09-11T02:37:05.075Z,58.50
2022-09-11T02:39:57.633Z,58.50
2022-09-11T02:42:44.926Z,58.50
2022-09-11T02:45:31.438Z,58.50
2022-09-11T02:48:25.319Z,58.60
2022-09-11T02:51:07.754Z,58.60
2022-09-11T02:53:48.869Z,58.50
2022-09-11T02:56:30.168Z,58.60
2022-09-11T02:59:10.821Z,58.60
2022-09-11T03:01:53.304Z,58.60
2022-09-11T03:04:31.543Z,58.60
2022-09-11T03:07:05.822Z,58.50
2022-09-11T03:09:39.850Z,58.50
2022-09-11T03:12:21.191Z,58.40
2022-09-11T03:15:00.313Z,58.50
2022-09-11T03:17:34.346Z,58.50
2022-09-11T03:20:11.339Z,58.60
2022-09-11T03:22:45.287Z,58.50
2022-09-11T03:25:19.425Z,58.50
2022-09-11T03:27:54.911Z,58.60
2022-09-11T03:30:29.182Z,58.60
2022-09-11T03:33:02.991Z,58.60
2022-09-11T03:35:41.202Z,58.60
2022-09-11T03:38:15.873Z,58.70
2022-09-11T03:40:50.224Z,58.60
2022-09-11T03:46:22.845Z,58.60
2022-09-11T03:48:56.858Z,58.60
2022-09-11T03:51:35.379Z,58.60
2022-09-11T03:54:11.198Z,58.60
2022-09-11T03:56:45.201Z,58.50
2022-09-11T03:59:20.532Z,58.40
2022-09-11T04:01:57.782Z,58.50
2022-09-11T04:04:31.614Z,58.50
2022-09-11T04:07:07.071Z,58.50
2022-09-11T04:09:41.024Z,58.40
2022-09-11T04:12:16.366Z,58.50
2022-09-11T04:14:51.061Z,58.50
2022-09-11T04:17:25.113Z,58.50
2022-09-11T04:20:00.618Z,58.60
2022-09-11T04:22:36.236Z,58.60
2022-09-11T04:25:11.219Z,58.60
2022-09-11T04:27:45.171Z,58.60
2022-09-11T04:30:22.782Z,58.50
2022-09-11T04:32:59.158Z,58.50
2022-09-11T04:35:33.403Z,58.40
2022-09-11T04:38:10.093Z,58.50
2022-09-11T04:40:45.602Z,58.40
2022-09-11T04:43:19.643Z,58.50
2022-09-11T04:45:54.294Z,58.50
2022-09-11T04:48:28.497Z,58.50
2022-09-11T04:51:04.268Z,58.50
2022-09-11T04:53:42.130Z,58.50
2022-09-11T04:56:16.130Z,58.50
2022-09-11T04:58:56.060Z,58.50
2022-09-11T05:01:33.871Z,58.50
2022-09-11T05:04:12.979Z,58.50
2022-09-11T05:06:48.726Z,58.60
2022-09-11T05:09:27.784Z,58.60
2022-09-11T05:12:03.436Z,58.70
2022-09-11T05:14:41.358Z,58.60
2022-09-11T05:17:15.560Z,58.60
2022-09-11T05:19:52.865Z,58.60
2022-09-11T05:22:29.901Z,58.60
2022-09-11T05:25:07.149Z,58.60
2022-09-11T05:27:41.091Z,58.60
2022-09-11T05:30:18.085Z,58.60
2022-09-11T05:32:55.926Z,58.60
2022-09-11T05:35:32.326Z,58.70
2022-09-11T05:38:11.008Z,58.70
2022-09-11T05:40:48.473Z,58.70
2022-09-11T05:43:22.662Z,58.70
2022-09-11T05:45:59.731Z,58.70
2022-09-11T05:48:38.813Z,58.70
2022-09-11T05:51:14.969Z,58.70
2022-09-11T05:53:50.685Z,58.60
2022-09-11T05:56:28.355Z,58.70
2022-09-11T05:59:15.306Z,58.80
2022-09-11T06:01:53.377Z,58.80
2022-09-11T06:04:45.615Z,58.80
2022-09-11T06:07:19.908Z,58.80
2022-09-11T06:09:59.701Z,58.80
2022-09-11T06:12:42.607Z,58.70
2022-09-11T06:15:43.012Z,58.80
2022-09-11T06:18:11.308Z,58.80
2022-09-11T06:20:45.454Z,58.80
2022-09-11T06:23:25.375Z,58.90
2022-09-11T06:26:04.655Z,58.80
2022-09-11T06:28:44.472Z,58.80
2022-09-11T06:31:20.335Z,58.70
2022-09-11T06:33:54.826Z,58.80
2022-09-11T06:36:30.245Z,58.70
2022-09-11T06:39:06.138Z,59.70
2022-09-11T06:41:41.961Z,59.80
2022-09-11T06:44:21.846Z,59.80
2022-09-11T06:46:55.992Z,59.70
2022-09-11T06:49:31.193Z,59.50
2022-09-11T06:52:26.594Z,59.40
2022-09-11T06:55:14.602Z,59.30
2022-09-11T06:57:55.114Z,59.20
2022-09-11T07:00:35.121Z,59.10
2022-09-11T07:03:10.184Z,59.60
2022-09-11T07:05:47.746Z,59.00
2022-09-11T07:08:25.185Z,58.90
2022-09-11T07:11:04.922Z,59.10
2022-09-11T07:13:42.313Z,59.20
2022-09-11T07:16:18.331Z,59.40
2022-09-11T07:18:58.335Z,59.90
2022-09-11T07:21:34.540Z,60.30
2022-09-11T07:24:12.997Z,60.70
2022-09-11T07:26:49.837Z,60.80
2022-09-11T07:29:29.615Z,60.80
2022-09-11T07:32:06.095Z,60.70
2022-09-11T07:34:40.236Z,60.50
2022-09-11T07:37:17.194Z,60.30
2022-09-11T07:39:52.100Z,60.20
2022-09-11T07:42:29.306Z,60.20
2022-09-11T07:45:04.522Z,60.10
2022-09-11T07:47:41.331Z,60.10
2022-09-11T07:50:16.019Z,60.50
2022-09-11T07:52:50.829Z,61.20
2022-09-11T07:55:24.717Z,63.10
2022-09-11T07:58:00.016Z,63.50
2022-09-11T08:00:37.210Z,63.70
2022-09-11T08:03:22.206Z,63.60
2022-09-11T08:05:59.612Z,63.20
2022-09-11T08:08:34.514Z,62.50
2022-09-11T08:11:10.678Z,62.10
2022-09-11T08:13:51.063Z,61.80
2022-09-11T08:16:28.949Z,61.60
2022-09-11T08:19:08.122Z,61.50
2022-09-11T08:21:42.188Z,61.30
2022-09-11T08:24:17.836Z,60.90
2022-09-11T08:26:52.520Z,60.50
2022-09-11T08:29:26.785Z,60.30
2022-09-11T08:32:02.483Z,59.90
2022-09-11T08:34:40.648Z,59.70
2022-09-11T08:37:14.542Z,59.40
2022-09-11T08:39:48.528Z,59.90
2022-09-11T08:42:23.475Z,59.20
2022-09-11T08:44:59.682Z,58.80
2022-09-11T08:47:52.155Z,58.40
2022-09-11T08:50:29.800Z,58.00
2022-09-11T08:53:07.717Z,57.90
2022-09-11T08:55:48.062Z,58.10
2022-09-11T08:58:34.966Z,58.30
2022-09-11T09:01:23.712Z,58.30
2022-09-11T09:04:14.015Z,58.00
2022-09-11T09:07:05.871Z,57.50
2022-09-11T09:09:49.698Z,57.20
2022-09-11T09:12:32.555Z,57.80
2022-09-11T09:15:19.868Z,58.00
2022-09-11T09:18:00.774Z,57.90
2022-09-11T09:20:41.230Z,57.90
2022-09-11T09:23:20.702Z,57.60
2022-09-11T09:25:57.968Z,57.30
2022-09-11T09:28:40.050Z,57.50
2022-09-11T09:31:18.631Z,57.30
2022-09-11T09:33:57.360Z,57.60
2022-09-11T09:36:34.595Z,57.70
2022-09-11T09:39:15.879Z,57.80
2022-09-11T09:42:15.644Z,57.60
2022-09-11T09:45:02.841Z,58.00
2022-09-11T09:47:43.923Z,57.70
2022-09-11T09:50:21.238Z,57.60
2022-09-11T09:53:03.981Z,57.50
2022-09-11T09:55:40.877Z,57.40
2022-09-11T09:58:14.826Z,57.40
2022-09-11T10:00:48.682Z,57.40
2022-09-11T10:03:23.550Z,58.00
2022-09-11T10:06:00.326Z,58.40
2022-09-11T10:08:35.744Z,58.80
2022-09-11T10:11:13.625Z,58.40
2022-09-11T10:13:57.398Z,57.70
2022-09-11T10:16:32.889Z,57.30
2022-09-11T10:19:06.901Z,57.00
2022-09-11T10:21:40.865Z,57.00
2022-09-11T10:24:26.361Z,56.50
2022-09-11T10:27:01.773Z,56.10
2022-09-11T10:29:36.714Z,56.00
2022-09-11T10:32:19.238Z,55.70
2022-09-11T10:34:54.326Z,55.60
2022-09-11T10:37:31.319Z,55.40
2022-09-11T10:40:09.630Z,55.30
2022-09-11T10:42:46.444Z,55.20
2022-09-11T10:45:22.434Z,55.20
2022-09-11T10:47:56.226Z,55.20
2022-09-11T10:50:30.157Z,55.10
2022-09-11T10:53:18.284Z,55.30
2022-09-11T10:56:00.396Z,55.20
2022-09-11T10:58:40.027Z,55.10
2022-09-11T11:01:14.155Z,55.70
2022-09-11T11:03:48.978Z,55.10
2022-09-11T11:06:37.245Z,55.10
2022-09-11T11:09:32.312Z,55.10
2022-09-11T11:12:20.771Z,55.00
2022-09-11T11:15:13.974Z,55.00
2022-09-11T11:17:56.446Z,55.00
2022-09-11T11:20:38.525Z,55.00
2022-09-11T11:23:27.956Z,55.00
2022-09-11T11:26:19.448Z,55.00
2022-09-11T11:29:23.419Z,55.00
2022-09-11T11:32:11.448Z,55.00
2022-09-11T11:35:04.412Z,54.90
2022-09-11T11:37:43.356Z,54.90
2022-09-11T11:40:25.539Z,54.90
2022-09-11T11:43:04.723Z,54.80
2022-09-11T11:45:43.456Z,54.80
2022-09-11T11:48:25.539Z,54.80
2022-09-11T11:51:03.187Z,54.80
2022-09-11T11:53:40.717Z,55.30
2022-09-11T11:56:24.636Z,54.80
2022-09-11T11:59:04.299Z,54.80
2022-09-11T12:01:44.232Z,54.70
2022-09-11T12:04:29.086Z,54.70
2022-09-11T12:07:05.323Z,54.70
2022-09-11T12:09:39.280Z,54.70
2022-09-11T12:12:14.200Z,54.70
2022-09-11T12:14:53.950Z,54.70
2022-09-11T12:17:30.331Z,54.60
2022-09-11T12:20:35.111Z,54.60
2022-09-11T12:23:36.339Z,54.60
2022-09-11T12:26:22.361Z,54.60
2022-09-11T12:29:30.098Z,54.60
2022-09-11T12:32:25.129Z,54.60
2022-09-11T12:35:04.414Z,54.50
2022-09-11T12:37:40.574Z,54.50
2022-09-11T12:40:20.621Z,54.50
2022-09-11T12:43:01.124Z,54.50
2022-09-11T12:45:39.470Z,54.50
2022-09-11T12:48:17.692Z,54.50
2022-09-11T12:50:54.687Z,54.50
2022-09-11T12:53:32.708Z,54.50
2022-09-11T12:56:08.862Z,54.50
2022-09-11T12:58:45.492Z,54.50
2022-09-11T13:01:23.229Z,54.40
2022-09-11T13:04:02.415Z,54.40
2022-09-11T13:06:42.527Z,54.40
2022-09-11T13:09:24.132Z,54.30
2022-09-11T13:12:18.825Z,54.30
2022-09-11T13:14:56.254Z,54.30
2022-09-11T13:17:31.729Z,54.30
2022-09-11T13:20:22.516Z,54.30
2022-09-11T13:23:11.620Z,54.20
2022-09-11T13:25:46.255Z,54.20
2022-09-11T13:28:24.350Z,54.30
2022-09-11T13:31:05.194Z,54.10
2022-09-11T13:33:41.081Z,54.10
2022-09-11T13:36:16.413Z,54.10
2022-09-11T13:38:54.626Z,54.10
2022-09-11T13:41:31.503Z,54.00
2022-09-11T13:44:11.902Z,54.00
2022-09-11T13:46:53.863Z,54.00
2022-09-11T13:49:35.430Z,53.90
2022-09-11T13:52:12.676Z,54.00
2022-09-11T13:54:50.478Z,54.00
2022-09-11T13:57:25.926Z,53.90
2022-09-11T14:00:00.613Z,53.90
2022-09-11T14:02:50.759Z,53.90
2022-09-11T14:05:27.384Z,53.90
2022-09-11T14:08:04.817Z,53.90
2022-09-11T14:10:47.275Z,53.80
2022-09-11T14:13:27.762Z,53.80
2022-09-11T14:16:06.088Z,53.80
2022-09-11T14:18:46.297Z,53.80
2022-09-11T14:21:23.019Z,53.70
2022-09-11T14:23:58.363Z,53.70
2022-09-11T14:26:42.574Z,53.70
2022-09-11T14:29:28.705Z,53.70
2022-09-11T14:32:31.300Z,53.70
2022-09-11T14:35:08.242Z,53.70
2022-09-11T14:37:45.981Z,53.70
2022-09-11T14:40:21.325Z,53.70
2022-09-11T14:42:55.267Z,53.70
2022-09-11T14:45:30.617Z,53.60
2022-09-11T14:48:06.772Z,53.70
2022-09-11T14:50:42.058Z,53.70
2022-09-11T14:53:25.728Z,53.60
2022-09-11T14:56:00.838Z,53.60
2022-09-11T14:58:34.611Z,53.60
2022-09-11T15:01:08.206Z,53.50
2022-09-11T15:03:42.184Z,53.50
2022-09-11T15:06:20.628Z,53.60
2022-09-11T15:08:54.420Z,53.50
2022-09-11T15:11:28.039Z,53.50
2022-09-11T15:14:20.427Z,53.50
2022-09-11T15:16:58.266Z,53.50
2022-09-11T15:19:32.266Z,53.50
2022-09-11T15:22:08.039Z,53.50
2022-09-11T15:24:42.094Z,53.40
2022-09-11T15:27:15.981Z,53.40
2022-09-11T15:29:49.473Z,53.40
2022-09-11T15:32:23.283Z,53.30
2022-09-11T15:34:56.797Z,53.40
2022-09-11T15:37:32.002Z,53.30
2022-09-11T15:40:06.720Z,53.30
2022-09-11T15:42:40.745Z,53.30
2022-09-11T15:45:14.697Z,53.30
2022-09-11T15:47:48.643Z,53.30
2022-09-11T15:50:27.958Z,53.30
2022-09-11T15:53:03.224Z,53.20
2022-09-11T15:55:37.111Z,53.20
2022-09-11T15:58:10.964Z,53.20
2022-09-11T16:00:47.008Z,53.10
2022-09-11T16:03:21.444Z,53.10
2022-09-11T16:05:55.299Z,53.10
2022-09-11T16:08:30.200Z,53.10
2022-09-11T16:11:08.831Z,53.10
2022-09-11T16:13:43.631Z,53.10
2022-09-11T16:16:18.115Z,53.10
2022-09-11T16:18:52.385Z,53.00
2022-09-11T16:21:27.339Z,53.00
2022-09-11T16:24:07.093Z,52.90
2022-09-11T16:26:42.037Z,52.90
2022-09-11T16:29:18.164Z,52.90
2022-09-11T16:31:52.261Z,52.90
2022-09-11T16:34:26.100Z,52.90
2022-09-11T16:37:01.630Z,52.80
2022-09-11T16:39:36.998Z,52.70
2022-09-11T16:42:11.709Z,52.70
2022-09-11T16:44:46.365Z,52.70
2022-09-11T16:47:20.627Z,52.60
2022-09-11T16:50:10.348Z,52.60
2022-09-11T16:52:44.241Z,52.60
2022-09-11T16:55:20.157Z,52.60
2022-09-11T16:57:54.104Z,52.60
2022-09-11T17:00:29.085Z,52.60
2022-09-11T17:03:02.887Z,52.60
2022-09-11T17:05:36.419Z,52.60
2022-09-11T17:08:10.243Z,52.70
2022-09-11T17:10:45.871Z,52.60
2022-09-11T17:13:19.767Z,52.60
2022-09-11T17:15:53.353Z,53.20
2022-09-11T17:18:27.197Z,52.60
2022-09-11T17:21:04.253Z,52.60
2022-09-11T17:23:39.417Z,52.60
2022-09-11T17:26:17.004Z,52.60
2022-09-11T17:28:51.729Z,52.50
2022-09-11T17:31:26.281Z,52.50
2022-09-11T17:34:00.160Z,52.50
2022-09-11T17:36:33.837Z,52.50
2022-09-11T17:39:07.762Z,52.50
2022-09-11T17:41:44.256Z,52.40
2022-09-11T17:44:18.055Z,52.40
2022-09-11T17:46:52.263Z,52.40
2022-09-11T17:49:27.026Z,52.50
2022-09-11T17:52:00.972Z,52.40
2022-09-11T17:54:34.494Z,52.40
2022-09-11T17:57:10.008Z,52.50
2022-09-11T17:59:44.291Z,52.40
2022-09-11T18:02:18.366Z,52.40
2022-09-11T18:04:52.293Z,52.50
2022-09-11T18:07:25.809Z,52.50
2022-09-11T18:09:59.970Z,52.80
2022-09-11T18:12:35.623Z,52.80
2022-09-11T18:15:10.822Z,53.00
2022-09-11T18:17:47.922Z,53.10
2022-09-11T18:20:21.952Z,53.10
2022-09-11T18:22:56.391Z,52.90
2022-09-11T18:25:30.459Z,52.80
2022-09-11T18:28:07.236Z,52.70
2022-09-11T18:30:41.577Z,52.40
2022-09-11T18:33:16.839Z,52.30
2022-09-11T18:35:51.101Z,52.10
2022-09-11T18:38:29.854Z,51.90
2022-09-11T18:41:06.551Z,51.60
2022-09-11T18:43:41.794Z,51.40
2022-09-11T18:46:15.826Z,51.20
2022-09-11T18:48:50.441Z,51.10
2022-09-11T18:51:25.995Z,51.00
2022-09-11T18:54:00.385Z,50.90
2022-09-11T18:56:35.868Z,50.80
2022-09-11T18:59:11.689Z,50.70
2022-09-11T19:01:45.562Z,50.40
2022-09-11T19:04:20.403Z,50.30
2022-09-11T19:06:54.201Z,50.10
2022-09-11T19:09:29.357Z,50.00
2022-09-11T19:12:04.032Z,50.50
2022-09-11T19:14:39.269Z,50.50
2022-09-11T19:17:13.304Z,50.10
2022-09-11T19:19:47.329Z,50.30
2022-09-11T19:22:22.934Z,50.50
2022-09-11T19:24:59.773Z,50.50
2022-09-11T19:27:33.879Z,50.50
2022-09-11T19:30:10.005Z,50.50
2022-09-11T19:32:43.793Z,50.40
2022-09-11T19:35:18.053Z,50.30
2022-09-11T19:37:51.850Z,50.90
2022-09-11T19:40:26.467Z,50.30
2022-09-11T19:43:00.282Z,50.30
2022-09-11T19:45:35.240Z,50.20
2022-09-11T19:48:09.083Z,50.20
2022-09-11T19:50:45.143Z,49.90
2022-09-11T19:53:18.941Z,49.70
2022-09-11T19:55:54.637Z,49.50
2022-09-11T19:58:28.480Z,49.50
2022-09-11T20:01:09.322Z,49.50
2022-09-11T20:03:45.506Z,49.50
2022-09-11T20:06:38.955Z,49.60
2022-09-11T20:12:06.780Z,49.60
2022-09-11T20:14:42.643Z,49.70
2022-09-11T20:17:18.227Z,49.50
2022-09-11T20:19:52.072Z,49.40
2022-09-11T20:22:25.700Z,49.20
2022-09-11T20:25:00.485Z,50.30
2022-09-11T20:27:34.826Z,49.30
2022-09-11T20:30:09.778Z,49.40
2022-09-11T20:32:45.227Z,49.40
2022-09-11T20:35:19.434Z,49.40
2022-09-11T20:37:53.835Z,49.30
2022-09-11T20:40:27.705Z,49.40
2022-09-11T20:43:01.685Z,49.30
2022-09-11T20:45:36.816Z,49.30
2022-09-11T20:48:12.051Z,49.10
2022-09-11T20:50:46.121Z,48.70
2022-09-11T20:53:22.104Z,48.80
2022-09-11T20:56:01.017Z,48.90
2022-09-11T20:58:35.536Z,48.80
2022-09-11T21:01:12.472Z,48.90
2022-09-11T21:03:52.092Z,48.80
2022-09-11T21:06:27.686Z,48.50
2022-09-11T21:09:03.798Z,48.50
2022-09-11T21:11:38.906Z,48.50
2022-09-11T21:14:13.663Z,48.40
2022-09-11T21:16:47.489Z,48.40
2022-09-11T21:19:22.980Z,48.30
2022-09-11T21:21:56.989Z,48.30
2022-09-11T21:24:31.151Z,48.20
2022-09-11T21:27:05.331Z,48.00
2022-09-11T21:29:39.804Z,47.50
2022-09-11T21:32:15.770Z,47.70
2022-09-11T21:34:52.571Z,47.90
2022-09-11T21:37:26.500Z,48.00
2022-09-11T21:40:00.495Z,48.10
2022-09-11T21:42:35.007Z,48.10
2022-09-11T21:45:10.037Z,48.00
2022-09-11T21:47:44.188Z,47.80
2022-09-11T21:50:19.679Z,48.00
2022-09-11T21:52:53.488Z,48.00
2022-09-11T21:55:28.221Z,48.20
2022-09-11T21:58:02.249Z,47.90
2022-09-11T22:00:42.042Z,48.00
2022-09-11T22:03:18.734Z,48.00
2022-09-11T22:05:55.478Z,47.80
2022-09-11T22:08:29.294Z,48.20
2022-09-11T22:11:03.963Z,48.20
2022-09-11T22:13:38.391Z,48.00
2022-09-11T22:16:15.557Z,48.20
2022-09-11T22:18:51.694Z,48.40
2022-09-11T22:21:26.905Z,48.60
2022-09-11T22:24:00.929Z,48.70
2022-09-11T22:26:34.743Z,48.80
2022-09-11T22:29:08.463Z,49.00
2022-09-11T22:31:42.500Z,49.30
2022-09-11T22:34:16.447Z,49.30
2022-09-11T22:36:51.787Z,49.70
2022-09-11T22:39:25.825Z,50.10
2022-09-11T22:41:59.947Z,50.40
2022-09-11T22:44:33.827Z,50.50
2022-09-11T22:47:07.614Z,50.60
2022-09-11T22:49:41.463Z,50.80
2022-09-11T22:52:16.874Z,50.70
2022-09-11T22:54:50.716Z,50.80
2022-09-11T22:57:27.869Z,50.90
2022-09-11T23:00:03.233Z,50.70
2022-09-11T23:02:38.045Z,50.90
2022-09-11T23:05:29.535Z,51.10
2022-09-11T23:08:05.029Z,51.30
2022-09-11T23:10:42.388Z,51.20
2022-09-11T23:13:16.261Z,51.40
2022-09-11T23:15:49.781Z,51.30
2022-09-11T23:18:23.707Z,51.50
2022-09-11T23:20:58.909Z,51.40
2022-09-11T23:23:35.821Z,51.60
2022-09-11T23:26:10.168Z,51.70
2022-09-11T23:28:44.071Z,51.70
2022-09-11T23:31:20.464Z,51.70
2022-09-11T23:33:55.835Z,51.70
2022-09-11T23:36:31.057Z,51.90
2022-09-11T23:39:06.363Z,51.90
2022-09-11T23:41:40.154Z,52.00
2022-09-11T23:44:13.703Z,52.10
2022-09-11T23:46:47.626Z,52.10
2022-09-11T23:49:21.540Z,52.10
2022-09-11T23:51:55.576Z,52.00
2022-09-11T23:54:30.857Z,51.80
2022-09-11T23:57:05.783Z,52.10
2022-09-11T23:59:39.816Z,52.20
